createdAt,value
2023-03-15T00:01:05.158Z,3.60
2023-03-15T00:03:37.769Z,3.50
2023-03-15T00:06:06.414Z,3.40
2023-03-15T00:08:34.544Z,3.20
2023-03-15T00:11:03.188Z,3.10
2023-03-15T00:13:31.619Z,3.00
2023-03-15T00:16:01.074Z,3.00
2023-03-15T00:18:29.650Z,2.90
2023-03-15T00:20:59.134Z,2.70
2023-03-15T00:23:27.616Z,2.60
2023-03-15T00:25:56.184Z,2.50
2023-03-15T00:28:25.949Z,2.40
2023-03-15T00:31:04.505Z,2.40
2023-03-15T00:33:35.849Z,2.30
2023-03-15T00:36:06.632Z,2.20
2023-03-15T00:38:35.337Z,2.10
2023-03-15T00:41:06.206Z,2.10
2023-03-15T00:43:35.654Z,2.00
2023-03-15T00:46:04.660Z,2.00
2023-03-15T00:48:33.239Z,1.90
2023-03-15T00:51:21.220Z,1.90
2023-03-15T00:53:50.439Z,1.80
2023-03-15T00:56:19.857Z,1.80
2023-03-15T00:58:48.394Z,1.80
2023-03-15T01:01:17.779Z,1.70
2023-03-15T01:03:46.136Z,1.70
2023-03-15T01:06:16.662Z,1.60
2023-03-15T01:08:45.849Z,1.60
2023-03-15T01:11:15.303Z,1.60
2023-03-15T01:13:44.028Z,1.60
2023-03-15T01:16:14.067Z,1.60
2023-03-15T01:18:44.610Z,1.60
2023-03-15T01:21:17.180Z,1.50
2023-03-15T01:23:47.703Z,1.50
2023-03-15T01:26:16.680Z,1.50
2023-03-15T01:28:45.105Z,1.40
2023-03-15T01:31:16.936Z,1.40
2023-03-15T01:33:46.430Z,1.40
2023-03-15T01:36:16.501Z,1.30
2023-03-15T01:38:45.252Z,1.30
2023-03-15T01:41:14.413Z,1.30
2023-03-15T01:43:47.499Z,1.30
2023-03-15T01:46:23.904Z,1.20
2023-03-15T01:48:56.914Z,1.10
2023-03-15T01:51:33.959Z,1.10
2023-03-15T01:54:04.356Z,1.10
2023-03-15T01:56:34.805Z,1.00
2023-03-15T01:59:04.532Z,1.00
2023-03-15T02:01:34.184Z,1.00
2023-03-15T02:04:04.560Z,1.00
2023-03-15T02:06:38.682Z,1.00
2023-03-15T02:09:09.939Z,1.00
2023-03-15T02:11:40.991Z,1.00
2023-03-15T02:14:12.520Z,1.00
2023-03-15T02:16:44.435Z,1.00
2023-03-15T02:19:21.579Z,1.00
2023-03-15T02:21:56.839Z,1.00
2023-03-15T02:24:30.234Z,1.00
2023-03-15T02:26:59.381Z,1.00
2023-03-15T02:29:31.016Z,1.00
2023-03-15T02:31:59.561Z,0.90
2023-03-15T02:34:27.780Z,0.90
2023-03-15T02:36:58.382Z,1.00
2023-03-15T02:39:28.894Z,0.90
2023-03-15T02:41:58.530Z,0.90
2023-03-15T02:44:32.677Z,0.90
2023-03-15T02:47:05.008Z,0.90
2023-03-15T02:49:36.276Z,0.80
2023-03-15T02:52:04.932Z,0.80
2023-03-15T02:54:34.962Z,0.80
2023-03-15T02:57:03.082Z,0.80
2023-03-15T02:59:33.649Z,0.80
2023-03-15T03:02:02.295Z,0.80
2023-03-15T03:04:30.527Z,0.80
2023-03-15T03:06:58.837Z,0.70
2023-03-15T03:09:35.763Z,0.60
2023-03-15T03:12:04.252Z,0.50
2023-03-15T03:14:35.925Z,0.50
2023-03-15T03:17:09.384Z,0.50
2023-03-15T03:19:37.651Z,0.50
2023-03-15T03:22:05.974Z,0.50
2023-03-15T03:24:33.986Z,0.50
2023-03-15T03:27:02.502Z,0.40
2023-03-15T03:29:35.990Z,0.40
2023-03-15T03:32:06.122Z,0.40
2023-03-15T03:34:34.906Z,0.30
2023-03-15T03:37:04.039Z,0.30
2023-03-15T03:39:50.859Z,0.20
2023-03-15T03:42:19.826Z,0.20
2023-03-15T03:44:50.368Z,0.20
2023-03-15T03:47:20.048Z,0.20
2023-03-15T03:49:49.525Z,0.10
2023-03-15T03:52:17.801Z,0.10
2023-03-15T03:54:46.778Z,0.10
2023-03-15T03:57:14.891Z,0.10
2023-03-15T03:59:43.144Z,0.20
2023-03-15T04:02:14.033Z,0.20
2023-03-15T04:04:50.509Z,0.20
2023-03-15T04:07:21.882Z,0.20
2023-03-15T04:09:50.841Z,0.20
2023-03-15T04:12:20.035Z,0.20
2023-03-15T04:14:49.251Z,0.20
2023-03-15T04:17:22.290Z,0.20
2023-03-15T04:19:51.006Z,0.10
2023-03-15T04:22:26.261Z,0.10
2023-03-15T04:25:17.774Z,0.10
2023-03-15T04:27:59.816Z,0.10
2023-03-15T04:30:49.118Z,0.10
2023-03-15T04:33:39.098Z,0.20
2023-03-15T04:36:19.702Z,0.20
2023-03-15T04:39:23.222Z,0.30
2023-03-15T04:42:30.264Z,0.30
2023-03-15T04:45:28.688Z,0.30
2023-03-15T04:48:12.424Z,0.30
2023-03-15T04:50:49.605Z,0.30
2023-03-15T04:53:18.146Z,0.20
2023-03-15T04:55:53.198Z,0.20
2023-03-15T04:58:50.393Z,0.20
2023-03-15T05:01:50.619Z,0.30
2023-03-15T05:04:41.824Z,0.40
2023-03-15T05:07:41.054Z,0.50
2023-03-15T05:10:25.415Z,0.60
2023-03-15T05:13:19.013Z,0.70
2023-03-15T05:16:00.495Z,0.80
2023-03-15T05:18:45.505Z,0.90
2023-03-15T05:21:33.371Z,0.90
2023-03-15T05:24:17.309Z,1.00
2023-03-15T05:27:08.899Z,1.00
2023-03-15T05:29:38.009Z,1.00
2023-03-15T05:32:18.441Z,1.10
2023-03-15T05:35:01.971Z,1.10
2023-03-15T05:38:01.103Z,1.20
2023-03-15T05:40:40.611Z,1.20
2023-03-15T05:43:28.935Z,1.30
2023-03-15T05:46:16.399Z,1.40
2023-03-15T05:49:10.924Z,1.40
2023-03-15T05:51:57.411Z,1.50
2023-03-15T05:54:28.551Z,1.60
2023-03-15T05:57:07.969Z,1.60
2023-03-15T05:59:56.347Z,1.80
2023-03-15T06:02:41.811Z,1.80
2023-03-15T06:05:24.139Z,1.80
2023-03-15T06:07:52.856Z,1.80
2023-03-15T06:10:23.012Z,1.90
2023-03-15T06:12:55.385Z,1.90
2023-03-15T06:15:24.721Z,2.00
2023-03-15T06:17:54.359Z,2.00
2023-03-15T06:20:22.788Z,2.00
2023-03-15T06:22:51.208Z,2.10
2023-03-15T06:25:33.240Z,2.10
2023-03-15T06:28:02.898Z,2.10
2023-03-15T06:30:31.651Z,2.00
2023-03-15T06:33:02.681Z,2.00
2023-03-15T06:35:32.238Z,2.00
2023-03-15T06:38:01.192Z,2.00
2023-03-15T06:40:29.357Z,2.00
2023-03-15T06:42:58.134Z,1.90
2023-03-15T06:45:30.513Z,1.80
2023-03-15T06:47:59.877Z,1.80
2023-03-15T06:50:37.275Z,1.80
2023-03-15T06:53:13.784Z,1.80
2023-03-15T06:55:42.780Z,1.80
2023-03-15T06:58:11.011Z,1.80
2023-03-15T07:00:41.395Z,1.80
2023-03-15T07:03:10.555Z,1.80
2023-03-15T07:05:39.428Z,1.80
2023-03-15T07:08:07.523Z,1.80
2023-03-15T07:10:37.465Z,1.80
2023-03-15T07:13:06.929Z,1.80
2023-03-15T07:15:37.594Z,1.80
2023-03-15T07:18:07.459Z,2.00
2023-03-15T07:20:37.709Z,2.10
2023-03-15T07:23:06.888Z,2.10
2023-03-15T07:25:48.328Z,2.20
2023-03-15T07:28:20.336Z,2.20
2023-03-15T07:30:54.106Z,2.30
2023-03-15T07:33:25.426Z,2.30
2023-03-15T07:35:54.938Z,2.40
2023-03-15T07:38:23.300Z,2.70
2023-03-15T07:40:51.597Z,3.00
2023-03-15T07:43:20.189Z,3.40
2023-03-15T07:45:52.106Z,3.70
2023-03-15T07:48:21.130Z,3.70
2023-03-15T07:50:50.782Z,3.80
2023-03-15T07:53:19.482Z,4.00
2023-03-15T07:55:48.859Z,4.10
2023-03-15T07:58:20.134Z,4.10
2023-03-15T08:00:48.959Z,4.00
2023-03-15T08:03:17.115Z,3.90
2023-03-15T08:05:45.828Z,3.90
2023-03-15T08:08:15.345Z,4.10
2023-03-15T08:10:44.852Z,4.40
2023-03-15T08:13:13.009Z,4.50
2023-03-15T08:15:41.048Z,4.60
2023-03-15T08:18:09.600Z,4.40
2023-03-15T08:20:37.908Z,4.20
2023-03-15T08:23:06.423Z,4.10
2023-03-15T08:25:36.588Z,4.00
2023-03-15T08:28:04.957Z,3.90
2023-03-15T08:30:33.497Z,4.00
2023-03-15T08:33:01.637Z,3.90
2023-03-15T08:35:31.302Z,3.60
2023-03-15T08:37:59.705Z,3.40
2023-03-15T08:40:28.400Z,3.30
2023-03-15T08:42:58.078Z,3.30
2023-03-15T08:45:27.128Z,3.20
2023-03-15T08:47:58.642Z,3.20
2023-03-15T08:50:31.721Z,3.20
2023-03-15T08:53:00.888Z,3.10
2023-03-15T08:55:28.908Z,3.00
2023-03-15T08:58:03.023Z,3.00
2023-03-15T09:00:32.306Z,3.00
2023-03-15T09:03:01.456Z,3.10
2023-03-15T09:05:30.111Z,3.20
2023-03-15T09:08:00.771Z,3.30
2023-03-15T09:10:29.698Z,3.40
2023-03-15T09:13:00.594Z,3.50
2023-03-15T09:15:29.142Z,3.60
2023-03-15T09:17:57.496Z,3.60
2023-03-15T09:20:28.365Z,3.60
2023-03-15T09:22:57.396Z,3.50
2023-03-15T09:25:26.039Z,3.40
2023-03-15T09:27:54.075Z,3.40
2023-03-15T09:30:23.864Z,3.40
2023-03-15T09:32:52.794Z,3.30
2023-03-15T09:35:21.282Z,3.50
2023-03-15T09:37:49.557Z,3.50
2023-03-15T09:40:20.049Z,3.60
2023-03-15T09:42:56.321Z,3.60
2023-03-15T09:45:29.721Z,3.70
2023-03-15T09:48:01.840Z,3.80
2023-03-15T09:50:32.413Z,3.90
2023-03-15T09:53:04.153Z,3.90
2023-03-15T09:55:32.640Z,3.90
2023-03-15T09:58:02.131Z,3.80
2023-03-15T10:00:38.180Z,3.70
2023-03-15T10:03:10.356Z,3.70
2023-03-15T10:05:41.518Z,3.60
2023-03-15T10:08:13.090Z,3.60
2023-03-15T10:10:45.397Z,3.60
2023-03-15T10:13:31.392Z,3.60
2023-03-15T10:16:04.903Z,3.60
2023-03-15T10:18:54.161Z,3.60
2023-03-15T10:21:33.550Z,3.60
2023-03-15T10:24:03.736Z,3.70
2023-03-15T10:26:35.000Z,3.60
2023-03-15T10:29:04.092Z,3.60
2023-03-15T10:31:44.712Z,3.70
2023-03-15T10:34:14.349Z,3.80
2023-03-15T10:36:46.494Z,3.90
2023-03-15T10:39:15.353Z,4.20
2023-03-15T10:41:44.473Z,4.50
2023-03-15T10:44:14.097Z,4.80
2023-03-15T10:46:43.779Z,5.20
2023-03-15T10:49:13.524Z,5.70
2023-03-15T10:51:43.437Z,6.80
2023-03-15T10:54:16.589Z,8.30
2023-03-15T10:56:47.359Z,9.60
2023-03-15T10:59:17.092Z,10.60
2023-03-15T11:01:48.262Z,11.40
2023-03-15T11:04:18.191Z,11.60
2023-03-15T11:06:48.372Z,11.10
2023-03-15T11:09:17.574Z,9.60
2023-03-15T11:11:51.989Z,8.50
2023-03-15T11:14:20.799Z,7.40
2023-03-15T11:16:54.348Z,6.80
2023-03-15T11:19:24.200Z,6.50
2023-03-15T11:21:52.744Z,6.00
2023-03-15T11:24:24.010Z,5.90
2023-03-15T11:26:55.260Z,6.30
2023-03-15T11:29:25.982Z,7.00
2023-03-15T11:31:56.823Z,7.10
2023-03-15T11:34:28.923Z,7.10
2023-03-15T11:37:08.089Z,7.10
2023-03-15T11:39:45.401Z,7.10
2023-03-15T11:42:16.239Z,7.10
2023-03-15T11:44:46.908Z,7.00
2023-03-15T11:47:20.262Z,6.90
2023-03-15T11:49:51.255Z,6.80
2023-03-15T11:52:22.184Z,6.80
2023-03-15T11:54:52.362Z,6.60
2023-03-15T11:57:43.892Z,6.30
2023-03-15T12:00:21.037Z,6.10
2023-03-15T12:02:55.269Z,6.20
2023-03-15T12:05:44.720Z,6.40
2023-03-15T12:08:21.654Z,6.70
2023-03-15T12:10:50.902Z,7.20
2023-03-15T12:13:26.022Z,7.20
2023-03-15T12:15:55.393Z,7.30
2023-03-15T12:18:29.419Z,7.30
2023-03-15T12:21:15.126Z,7.20
2023-03-15T12:23:46.461Z,7.00
2023-03-15T12:26:24.527Z,6.90
2023-03-15T12:28:54.700Z,6.60
2023-03-15T12:31:24.466Z,6.50
2023-03-15T12:33:57.891Z,6.40
2023-03-15T12:36:32.893Z,6.30
2023-03-15T12:39:06.377Z,6.20
2023-03-15T12:41:38.071Z,6.20
2023-03-15T12:44:27.240Z,6.30
2023-03-15T12:46:57.556Z,6.70
2023-03-15T12:49:35.342Z,7.00
2023-03-15T12:52:05.365Z,6.90
2023-03-15T12:54:38.392Z,6.70
2023-03-15T12:57:10.629Z,6.60
2023-03-15T12:59:46.526Z,6.60
2023-03-15T13:02:42.157Z,6.60
2023-03-15T13:05:35.845Z,6.70
2023-03-15T13:08:10.029Z,7.10
2023-03-15T13:13:47.115Z,8.20
2023-03-15T13:16:25.461Z,8.20
2023-03-15T13:19:23.956Z,8.20
2023-03-15T13:22:04.748Z,8.70
2023-03-15T13:24:51.532Z,10.20
2023-03-15T13:27:36.464Z,11.20
2023-03-15T13:30:24.171Z,12.30
2023-03-15T13:33:03.981Z,13.40
2023-03-15T13:35:35.826Z,14.30
2023-03-15T13:38:28.834Z,15.50
2023-03-15T13:40:58.542Z,16.60
2023-03-15T13:43:29.355Z,16.80
2023-03-15T13:46:02.540Z,16.10
2023-03-15T13:48:32.931Z,15.60
2023-03-15T13:51:05.136Z,15.20
2023-03-15T13:53:49.390Z,15.00
2023-03-15T13:56:19.938Z,15.00
2023-03-15T13:58:53.558Z,15.30
2023-03-15T14:04:13.850Z,17.90
2023-03-15T14:06:48.127Z,18.00
2023-03-15T14:09:28.883Z,18.20
2023-03-15T14:12:04.047Z,18.60
2023-03-15T14:14:40.813Z,18.80
2023-03-15T14:17:12.154Z,18.20
2023-03-15T14:19:41.733Z,17.30
2023-03-15T14:22:23.287Z,16.90
2023-03-15T14:25:05.114Z,16.50
2023-03-15T14:27:34.026Z,16.10
2023-03-15T14:30:03.431Z,16.00
2023-03-15T14:32:33.216Z,16.20
2023-03-15T14:35:04.145Z,16.40
2023-03-15T14:37:37.482Z,16.50
2023-03-15T14:40:21.681Z,16.30
2023-03-15T14:42:52.626Z,15.60
2023-03-15T14:45:23.109Z,15.20
2023-03-15T14:47:57.211Z,14.40
2023-03-15T14:50:27.381Z,13.70
2023-03-15T14:52:58.484Z,13.10
2023-03-15T14:55:29.997Z,12.60
2023-03-15T14:58:01.137Z,12.10
2023-03-15T15:00:30.284Z,11.50
2023-03-15T15:02:59.155Z,11.30
2023-03-15T15:05:28.830Z,11.80
2023-03-15T15:08:01.788Z,12.60
2023-03-15T15:10:32.054Z,12.90
2023-03-15T15:13:06.773Z,12.70
2023-03-15T15:15:53.634Z,12.60
2023-03-15T15:18:24.035Z,12.40
2023-03-15T15:20:55.725Z,11.70
2023-03-15T15:23:25.864Z,11.40
2023-03-15T15:25:55.276Z,11.40
2023-03-15T15:28:34.588Z,11.90
2023-03-15T15:31:03.767Z,12.30
2023-03-15T15:33:33.064Z,12.50
2023-03-15T15:36:01.348Z,12.70
2023-03-15T15:38:33.075Z,12.90
2023-03-15T15:41:02.449Z,13.20
2023-03-15T15:43:33.897Z,13.10
2023-03-15T15:46:03.269Z,13.00
2023-03-15T15:48:33.033Z,12.70
2023-03-15T15:51:01.355Z,12.60
2023-03-15T15:53:31.627Z,12.50
2023-03-15T15:55:59.844Z,12.30
2023-03-15T15:58:28.803Z,12.50
2023-03-15T16:00:58.894Z,12.50
2023-03-15T16:03:27.730Z,12.40
2023-03-15T16:05:56.291Z,12.10
2023-03-15T16:08:26.267Z,11.60
2023-03-15T16:10:54.337Z,11.20
2023-03-15T16:13:22.646Z,10.80
2023-03-15T16:15:51.809Z,10.70
2023-03-15T16:18:22.437Z,10.60
2023-03-15T16:20:51.168Z,10.40
2023-03-15T16:23:22.058Z,10.30
2023-03-15T16:25:53.975Z,10.30
2023-03-15T16:28:22.224Z,10.40
2023-03-15T16:30:51.298Z,10.40
2023-03-15T16:33:20.910Z,10.20
2023-03-15T16:35:53.537Z,10.20
2023-03-15T16:38:24.676Z,10.20
2023-03-15T16:40:53.603Z,10.20
2023-03-15T16:43:21.549Z,10.00
2023-03-15T16:45:50.228Z,9.80
2023-03-15T16:48:18.577Z,9.60
2023-03-15T16:50:48.246Z,9.40
2023-03-15T16:53:19.488Z,9.10
2023-03-15T16:55:47.579Z,8.90
2023-03-15T16:58:17.811Z,8.70
2023-03-15T17:00:48.129Z,8.40
2023-03-15T17:03:17.679Z,8.30
2023-03-15T17:05:48.597Z,8.10
2023-03-15T17:08:21.775Z,7.90
2023-03-15T17:10:54.397Z,7.60
2023-03-15T17:13:25.945Z,7.40
2023-03-15T17:15:59.672Z,7.20
2023-03-15T17:18:30.122Z,7.00
2023-03-15T17:20:58.643Z,6.80
2023-03-15T17:23:28.593Z,6.60
2023-03-15T17:25:58.282Z,6.40
2023-03-15T17:28:26.648Z,6.30
2023-03-15T17:31:14.247Z,6.10
2023-03-15T17:33:47.067Z,5.90
2023-03-15T17:36:16.913Z,5.70
2023-03-15T17:38:47.215Z,5.50
2023-03-15T17:41:21.154Z,5.30
2023-03-15T17:43:49.734Z,5.20
2023-03-15T17:46:20.559Z,5.00
2023-03-15T17:48:48.820Z,4.80
2023-03-15T17:51:18.891Z,4.60
2023-03-15T17:53:48.828Z,4.40
2023-03-15T17:56:19.181Z,4.30
2023-03-15T17:58:52.349Z,4.20
2023-03-15T18:01:21.467Z,4.10
2023-03-15T18:03:51.422Z,4.00
2023-03-15T18:06:20.775Z,3.90
2023-03-15T18:08:51.074Z,3.90
2023-03-15T18:11:27.189Z,3.90
2023-03-15T18:13:56.193Z,4.00
2023-03-15T18:16:25.286Z,3.90
2023-03-15T18:18:53.609Z,3.90
2023-03-15T18:21:23.152Z,3.80
2023-03-15T18:23:53.490Z,3.70
2023-03-15T18:26:22.121Z,3.60
2023-03-15T18:28:50.316Z,3.50
2023-03-15T18:31:19.821Z,3.40
2023-03-15T18:33:49.965Z,3.20
2023-03-15T18:36:19.126Z,3.00
2023-03-15T18:38:48.664Z,2.90
2023-03-15T18:41:28.241Z,2.70
2023-03-15T18:43:56.933Z,2.60
2023-03-15T18:46:27.737Z,2.50
2023-03-15T18:48:59.115Z,2.30
2023-03-15T18:51:31.168Z,2.30
2023-03-15T18:53:59.315Z,2.20
2023-03-15T18:56:34.300Z,2.10
2023-03-15T18:59:03.120Z,2.20
2023-03-15T19:01:32.669Z,2.10
2023-03-15T19:04:01.342Z,2.00
2023-03-15T19:06:34.816Z,1.90
2023-03-15T19:09:06.287Z,1.80
2023-03-15T19:11:43.077Z,1.70
2023-03-15T19:14:13.973Z,1.70
2023-03-15T19:16:43.866Z,1.80
2023-03-15T19:19:14.894Z,2.00
2023-03-15T19:21:43.069Z,2.00
2023-03-15T19:24:12.087Z,1.90
2023-03-15T19:26:44.774Z,1.70
2023-03-15T19:29:13.358Z,1.70
2023-03-15T19:31:42.218Z,1.70
2023-03-15T19:34:10.491Z,1.70
2023-03-15T19:36:39.096Z,1.70
2023-03-15T19:39:10.456Z,1.70
2023-03-15T19:41:39.105Z,1.60
2023-03-15T19:44:09.254Z,1.40
2023-03-15T19:46:37.575Z,1.40
2023-03-15T19:49:05.947Z,1.30
2023-03-15T19:51:34.495Z,1.20
2023-03-15T19:54:03.230Z,1.10
2023-03-15T19:56:34.416Z,1.10
2023-03-15T19:59:03.346Z,1.20
2023-03-15T20:01:33.534Z,1.20
2023-03-15T20:04:02.613Z,1.10
2023-03-15T20:06:33.633Z,1.00
2023-03-15T20:09:02.969Z,1.00
2023-03-15T20:11:31.340Z,0.80
2023-03-15T20:13:59.444Z,0.70
2023-03-15T20:16:28.805Z,0.70
2023-03-15T20:18:58.592Z,0.70
2023-03-15T20:21:29.673Z,0.70
2023-03-15T20:23:58.495Z,0.80
2023-03-15T20:26:27.243Z,0.80
2023-03-15T20:28:55.530Z,0.70
2023-03-15T20:31:25.317Z,0.60
2023-03-15T20:33:54.485Z,0.60
2023-03-15T20:36:28.314Z,0.60
2023-03-15T20:38:59.161Z,0.60
2023-03-15T20:41:28.983Z,0.60
2023-03-15T20:43:58.457Z,0.60
2023-03-15T20:46:30.952Z,0.50
2023-03-15T20:48:59.112Z,0.40
2023-03-15T20:51:28.622Z,0.40
2023-03-15T20:53:56.790Z,0.30
2023-03-15T20:56:26.923Z,0.30
2023-03-15T20:58:56.485Z,0.30
2023-03-15T21:01:24.971Z,0.30
2023-03-15T21:03:56.387Z,0.20
2023-03-15T21:06:25.460Z,0.20
2023-03-15T21:08:55.960Z,0.20
2023-03-15T21:11:26.006Z,0.20
2023-03-15T21:13:55.485Z,0.10
2023-03-15T21:16:26.329Z,0.10
2023-03-15T21:18:58.164Z,0.00
2023-03-15T21:21:29.034Z,-0.10
2023-03-15T21:23:59.442Z,-0.10
2023-03-15T21:26:28.534Z,-0.20
2023-03-15T21:28:57.634Z,-0.10
2023-03-15T21:31:31.319Z,-0.10
2023-03-15T21:33:59.736Z,-0.10
2023-03-15T21:36:28.647Z,-0.10
2023-03-15T21:39:00.153Z,-0.10
2023-03-15T21:41:28.691Z,-0.20
2023-03-15T21:43:58.932Z,-0.30
2023-03-15T21:46:27.785Z,-0.30
2023-03-15T21:48:56.999Z,-0.40
2023-03-15T21:51:28.597Z,-0.50
2023-03-15T21:53:56.992Z,-0.60
2023-03-15T21:56:28.025Z,-0.60
2023-03-15T21:59:04.308Z,-0.60
2023-03-15T22:01:37.669Z,-0.70
2023-03-15T22:04:06.645Z,-0.70
2023-03-15T22:06:36.327Z,-0.80
2023-03-15T22:09:06.962Z,-0.80
2023-03-15T22:11:44.790Z,-0.90
2023-03-15T22:14:13.847Z,-1.00
2023-03-15T22:16:42.507Z,-1.00
2023-03-15T22:19:10.520Z,-0.90
2023-03-15T22:21:39.266Z,-0.90
2023-03-15T22:24:07.634Z,-0.80
2023-03-15T22:26:37.275Z,-0.80
2023-03-15T22:29:05.884Z,-0.80
2023-03-15T22:31:35.850Z,-0.80
2023-03-15T22:34:04.881Z,-0.80
2023-03-15T22:36:34.095Z,-0.90
2023-03-15T22:39:02.312Z,-0.90
2023-03-15T22:41:30.816Z,-0.90
2023-03-15T22:44:00.166Z,-0.90
2023-03-15T22:46:28.517Z,-0.80
2023-03-15T22:48:56.802Z,-0.80
2023-03-15T22:51:25.443Z,-0.80
2023-03-15T22:53:53.966Z,-0.80
2023-03-15T22:56:22.197Z,-0.90
2023-03-15T22:58:52.472Z,-0.90
2023-03-15T23:01:22.477Z,-0.90
2023-03-15T23:03:51.016Z,-0.90
2023-03-15T23:06:19.880Z,-0.90
2023-03-15T23:08:48.191Z,-0.90
2023-03-15T23:11:18.632Z,-0.90
2023-03-15T23:13:49.574Z,-0.90
2023-03-15T23:16:18.335Z,-0.90
2023-03-15T23:18:49.042Z,-0.90
2023-03-15T23:21:24.836Z,-0.90
2023-03-15T23:23:53.726Z,-0.90
2023-03-15T23:26:26.035Z,-0.90
2023-03-15T23:28:56.677Z,-0.90
2023-03-15T23:31:26.449Z,-0.90
2023-03-15T23:33:59.085Z,-0.90
2023-03-15T23:36:29.269Z,-0.90
2023-03-15T23:39:02.894Z,-0.90
2023-03-15T23:41:32.624Z,-0.90
2023-03-15T23:44:00.990Z,-1.00
2023-03-15T23:46:29.889Z,-1.00
2023-03-15T23:49:13.186Z,-1.10
2023-03-15T23:51:44.294Z,-1.10
2023-03-15T23:54:13.163Z,-1.00
2023-03-15T23:56:42.468Z,-1.00
2023-03-15T23:59:39.662Z,-1.00
